sensor_id;sensor_type;location;lat;lon;timestamp;temperature;humidity
26503;DHT22;14177;51.520;6.764;2022-11-20T00:00:17;-1.00;98.10
26503;DHT22;14177;51.520;6.764;2022-11-20T00:02:44;-1.00;98.10
26503;DHT22;14177;51.520;6.764;2022-11-20T00:05:10;-1.00;98.20
26503;DHT22;14177;51.520;6.764;2022-11-20T00:07:37;-1.00;98.30
26503;DHT22;14177;51.520;6.764;2022-11-20T00:10:04;-1.10;98.30
26503;DHT22;14177;51.520;6.764;2022-11-20T00:12:31;-1.00;98.40
26503;DHT22;14177;51.520;6.764;2022-11-20T00:14:58;-1.10;98.40
26503;DHT22;14177;51.520;6.764;2022-11-20T00:17:25;-1.10;98.40
26503;DHT22;14177;51.520;6.764;2022-11-20T00:19:52;-1.10;98.40
26503;DHT22;14177;51.520;6.764;2022-11-20T00:22:19;-1.10;98.70
26503;DHT22;14177;51.520;6.764;2022-11-20T00:24:46;-1.10;98.50
26503;DHT22;14177;51.520;6.764;2022-11-20T00:27:13;-1.10;98.50
26503;DHT22;14177;51.520;6.764;2022-11-20T00:29:39;-1.10;98.50
26503;DHT22;14177;51.520;6.764;2022-11-20T00:32:06;-1.20;98.60
26503;DHT22;14177;51.520;6.764;2022-11-20T00:34:33;-1.20;98.60
26503;DHT22;14177;51.520;6.764;2022-11-20T00:37:00;-1.20;98.70
26503;DHT22;14177;51.520;6.764;2022-11-20T00:39:26;-1.20;98.70
26503;DHT22;14177;51.520;6.764;2022-11-20T00:41:53;-1.20;98.70
26503;DHT22;14177;51.520;6.764;2022-11-20T00:44:20;-1.20;98.70
26503;DHT22;14177;51.520;6.764;2022-11-20T00:46:47;-1.30;98.70
26503;DHT22;14177;51.520;6.764;2022-11-20T00:49:13;-1.30;98.70
26503;DHT22;14177;51.520;6.764;2022-11-20T00:51:40;-1.30;98.70
26503;DHT22;14177;51.520;6.764;2022-11-20T00:54:07;-1.30;98.70
26503;DHT22;14177;51.520;6.764;2022-11-20T00:56:34;-1.30;98.70
26503;DHT22;14177;51.520;6.764;2022-11-20T00:59:00;-1.30;98.80
26503;DHT22;14177;51.520;6.764;2022-11-20T01:01:27;-1.30;98.80
26503;DHT22;14177;51.520;6.764;2022-11-20T01:03:59;-1.30;98.80
26503;DHT22;14177;51.520;6.764;2022-11-20T01:06:27;-1.40;98.80
26503;DHT22;14177;51.520;6.764;2022-11-20T01:08:59;-1.40;98.80
26503;DHT22;14177;51.520;6.764;2022-11-20T01:11:28;-1.40;98.90
26503;DHT22;14177;51.520;6.764;2022-11-20T01:13:58;-1.40;99.00
26503;DHT22;14177;51.520;6.764;2022-11-20T01:18:53;-1.50;99.00
26503;DHT22;14177;51.520;6.764;2022-11-20T01:21:29;-1.50;99.00
26503;DHT22;14177;51.520;6.764;2022-11-20T01:24:07;-1.50;99.00
26503;DHT22;14177;51.520;6.764;2022-11-20T01:26:37;-1.50;99.00
26503;DHT22;14177;51.520;6.764;2022-11-20T01:29:05;-1.50;99.20
26503;DHT22;14177;51.520;6.764;2022-11-20T01:31:33;-1.50;99.30
26503;DHT22;14177;51.520;6.764;2022-11-20T01:34:06;-1.50;99.40
26503;DHT22;14177;51.520;6.764;2022-11-20T01:36:35;-1.50;99.40
26503;DHT22;14177;51.520;6.764;2022-11-20T01:39:04;-1.50;99.40
26503;DHT22;14177;51.520;6.764;2022-11-20T01:41:33;-1.50;99.40
26503;DHT22;14177;51.520;6.764;2022-11-20T01:44:22;-1.50;99.40
26503;DHT22;14177;51.520;6.764;2022-11-20T01:47:09;-1.50;99.40
26503;DHT22;14177;51.520;6.764;2022-11-20T01:49:42;-1.60;99.30
26503;DHT22;14177;51.520;6.764;2022-11-20T01:52:17;-1.60;99.40
26503;DHT22;14177;51.520;6.764;2022-11-20T01:54:58;-1.60;99.40
26503;DHT22;14177;51.520;6.764;2022-11-20T01:57:30;-1.60;99.40
26503;DHT22;14177;51.520;6.764;2022-11-20T02:00:01;-1.60;99.50
26503;DHT22;14177;51.520;6.764;2022-11-20T02:02:40;-1.60;99.60
26503;DHT22;14177;51.520;6.764;2022-11-20T02:07:59;-1.50;99.70
26503;DHT22;14177;51.520;6.764;2022-11-20T02:10:27;-1.50;99.80
26503;DHT22;14177;51.520;6.764;2022-11-20T02:12:54;-1.50;99.90
26503;DHT22;14177;51.520;6.764;2022-11-20T02:15:40;-1.50;99.90
26503;DHT22;14177;51.520;6.764;2022-11-20T02:18:07;-1.50;99.90
26503;DHT22;14177;51.520;6.764;2022-11-20T02:20:36;-1.40;99.90
26503;DHT22;14177;51.520;6.764;2022-11-20T02:23:05;-1.40;99.90
26503;DHT22;14177;51.520;6.764;2022-11-20T02:25:38;-1.30;99.90
26503;DHT22;14177;51.520;6.764;2022-11-20T02:28:06;-1.30;99.90
26503;DHT22;14177;51.520;6.764;2022-11-20T02:30:33;-1.20;99.90
26503;DHT22;14177;51.520;6.764;2022-11-20T02:33:00;-1.20;99.90
26503;DHT22;14177;51.520;6.764;2022-11-20T02:37:54;-1.20;99.90
26503;DHT22;14177;51.520;6.764;2022-11-20T02:40:22;-1.20;99.90
26503;DHT22;14177;51.520;6.764;2022-11-20T02:42:55;-1.10;99.90
26503;DHT22;14177;51.520;6.764;2022-11-20T02:45:24;-1.10;99.90
26503;DHT22;14177;51.520;6.764;2022-11-20T02:47:51;-1.00;99.90
26503;DHT22;14177;51.520;6.764;2022-11-20T02:50:19;-1.00;99.90
26503;DHT22;14177;51.520;6.764;2022-11-20T02:52:46;-0.90;99.90
26503;DHT22;14177;51.520;6.764;2022-11-20T02:55:13;-0.90;99.90
26503;DHT22;14177;51.520;6.764;2022-11-20T02:57:39;-0.90;99.90
26503;DHT22;14177;51.520;6.764;2022-11-20T03:00:06;-0.80;99.90
26503;DHT22;14177;51.520;6.764;2022-11-20T03:02:34;-0.80;99.90
26503;DHT22;14177;51.520;6.764;2022-11-20T03:05:01;-0.80;99.90
26503;DHT22;14177;51.520;6.764;2022-11-20T03:07:27;-0.70;99.90
26503;DHT22;14177;51.520;6.764;2022-11-20T03:09:54;-0.70;99.90
26503;DHT22;14177;51.520;6.764;2022-11-20T03:12:21;-0.70;99.90
26503;DHT22;14177;51.520;6.764;2022-11-20T03:14:48;-0.70;99.90
26503;DHT22;14177;51.520;6.764;2022-11-20T03:17:18;-0.60;99.90
26503;DHT22;14177;51.520;6.764;2022-11-20T03:19:46;-0.60;99.90
26503;DHT22;14177;51.520;6.764;2022-11-20T03:22:13;-0.60;99.90
26503;DHT22;14177;51.520;6.764;2022-11-20T03:24:39;-0.60;99.90
26503;DHT22;14177;51.520;6.764;2022-11-20T03:27:06;-0.60;99.90
26503;DHT22;14177;51.520;6.764;2022-11-20T03:29:34;-0.60;99.90
26503;DHT22;14177;51.520;6.764;2022-11-20T03:32:01;-0.60;99.90
26503;DHT22;14177;51.520;6.764;2022-11-20T03:34:28;-0.50;99.90
26503;DHT22;14177;51.520;6.764;2022-11-20T03:36:55;-0.50;99.90
26503;DHT22;14177;51.520;6.764;2022-11-20T03:39:22;-0.50;99.90
26503;DHT22;14177;51.520;6.764;2022-11-20T03:41:49;-0.40;99.90
26503;DHT22;14177;51.520;6.764;2022-11-20T03:44:16;-0.40;99.90
26503;DHT22;14177;51.520;6.764;2022-11-20T03:46:43;-0.40;99.90
26503;DHT22;14177;51.520;6.764;2022-11-20T03:49:10;-0.40;99.90
26503;DHT22;14177;51.520;6.764;2022-11-20T03:51:37;-0.30;99.90
26503;DHT22;14177;51.520;6.764;2022-11-20T03:54:05;-0.30;99.90
26503;DHT22;14177;51.520;6.764;2022-11-20T03:56:34;-0.30;99.90
26503;DHT22;14177;51.520;6.764;2022-11-20T03:59:03;-0.30;99.90
26503;DHT22;14177;51.520;6.764;2022-11-20T04:01:34;-0.30;99.90
26503;DHT22;14177;51.520;6.764;2022-11-20T04:04:04;-0.30;99.90
26503;DHT22;14177;51.520;6.764;2022-11-20T04:06:35;-0.30;99.90
26503;DHT22;14177;51.520;6.764;2022-11-20T04:09:03;-0.30;99.90
26503;DHT22;14177;51.520;6.764;2022-11-20T04:11:32;-0.30;99.90
26503;DHT22;14177;51.520;6.764;2022-11-20T04:14:02;-0.30;99.90
26503;DHT22;14177;51.520;6.764;2022-11-20T04:16:31;-0.30;99.90
26503;DHT22;14177;51.520;6.764;2022-11-20T04:19:01;-0.30;99.90
26503;DHT22;14177;51.520;6.764;2022-11-20T04:21:29;-0.30;99.90
26503;DHT22;14177;51.520;6.764;2022-11-20T04:23:57;-0.30;99.90
26503;DHT22;14177;51.520;6.764;2022-11-20T04:26:25;-0.30;99.90
26503;DHT22;14177;51.520;6.764;2022-11-20T04:28:53;-0.30;99.90
26503;DHT22;14177;51.520;6.764;2022-11-20T04:31:21;-0.30;99.90
26503;DHT22;14177;51.520;6.764;2022-11-20T04:33:51;-0.30;99.90
26503;DHT22;14177;51.520;6.764;2022-11-20T04:36:19;-0.20;99.90
26503;DHT22;14177;51.520;6.764;2022-11-20T04:38:51;-0.30;99.90
26503;DHT22;14177;51.520;6.764;2022-11-20T04:41:24;-0.20;99.90
26503;DHT22;14177;51.520;6.764;2022-11-20T04:43:53;-0.20;99.90
26503;DHT22;14177;51.520;6.764;2022-11-20T04:46:26;-0.30;99.90
26503;DHT22;14177;51.520;6.764;2022-11-20T04:48:55;-0.20;99.90
26503;DHT22;14177;51.520;6.764;2022-11-20T04:51:23;-0.20;99.90
26503;DHT22;14177;51.520;6.764;2022-11-20T04:53:49;-0.20;99.90
26503;DHT22;14177;51.520;6.764;2022-11-20T04:56:16;-0.30;99.90
26503;DHT22;14177;51.520;6.764;2022-11-20T04:58:44;-0.20;99.90
26503;DHT22;14177;51.520;6.764;2022-11-20T05:01:12;-0.20;99.90
26503;DHT22;14177;51.520;6.764;2022-11-20T05:03:41;-0.20;99.90
26503;DHT22;14177;51.520;6.764;2022-11-20T05:06:10;-0.10;99.90
26503;DHT22;14177;51.520;6.764;2022-11-20T05:08:38;-0.10;99.90
26503;DHT22;14177;51.520;6.764;2022-11-20T05:11:06;-0.10;99.90
26503;DHT22;14177;51.520;6.764;2022-11-20T05:13:35;-0.10;99.90
26503;DHT22;14177;51.520;6.764;2022-11-20T05:16:07;-0.10;99.90
26503;DHT22;14177;51.520;6.764;2022-11-20T05:18:38;-0.10;99.90
26503;DHT22;14177;51.520;6.764;2022-11-20T05:21:06;-0.10;99.90
26503;DHT22;14177;51.520;6.764;2022-11-20T05:23:35;-0.10;99.90
26503;DHT22;14177;51.520;6.764;2022-11-20T05:26:02;0.00;99.90
26503;DHT22;14177;51.520;6.764;2022-11-20T05:28:30;0.00;99.90
26503;DHT22;14177;51.520;6.764;2022-11-20T05:31:07;0.00;99.90
26503;DHT22;14177;51.520;6.764;2022-11-20T05:33:42;0.00;99.90
26503;DHT22;14177;51.520;6.764;2022-11-20T05:36:10;0.00;99.90
26503;DHT22;14177;51.520;6.764;2022-11-20T05:38:39;0.00;99.90
26503;DHT22;14177;51.520;6.764;2022-11-20T05:41:07;0.00;99.90
26503;DHT22;14177;51.520;6.764;2022-11-20T05:43:36;0.00;99.90
26503;DHT22;14177;51.520;6.764;2022-11-20T05:46:04;0.00;99.90
26503;DHT22;14177;51.520;6.764;2022-11-20T05:48:32;0.00;99.90
26503;DHT22;14177;51.520;6.764;2022-11-20T05:51:00;0.00;99.90
26503;DHT22;14177;51.520;6.764;2022-11-20T05:53:29;0.00;99.90
26503;DHT22;14177;51.520;6.764;2022-11-20T05:55:57;0.00;99.90
26503;DHT22;14177;51.520;6.764;2022-11-20T05:58:27;0.00;99.90
26503;DHT22;14177;51.520;6.764;2022-11-20T06:00:54;0.00;99.90
26503;DHT22;14177;51.520;6.764;2022-11-20T06:03:33;0.00;99.90
26503;DHT22;14177;51.520;6.764;2022-11-20T06:06:00;0.00;99.90
26503;DHT22;14177;51.520;6.764;2022-11-20T06:08:29;-0.10;99.90
26503;DHT22;14177;51.520;6.764;2022-11-20T06:10:56;-0.10;99.90
26503;DHT22;14177;51.520;6.764;2022-11-20T06:13:23;-0.10;99.90
26503;DHT22;14177;51.520;6.764;2022-11-20T06:15:50;-0.10;99.90
26503;DHT22;14177;51.520;6.764;2022-11-20T06:18:18;-0.10;99.90
26503;DHT22;14177;51.520;6.764;2022-11-20T06:20:46;-0.10;99.90
26503;DHT22;14177;51.520;6.764;2022-11-20T06:23:13;-0.10;99.90
26503;DHT22;14177;51.520;6.764;2022-11-20T06:25:40;-0.10;99.90
26503;DHT22;14177;51.520;6.764;2022-11-20T06:28:08;-0.10;99.90
26503;DHT22;14177;51.520;6.764;2022-11-20T06:30:35;-0.10;99.90
26503;DHT22;14177;51.520;6.764;2022-11-20T06:33:02;-0.10;99.90
26503;DHT22;14177;51.520;6.764;2022-11-20T06:35:29;-0.10;99.90
26503;DHT22;14177;51.520;6.764;2022-11-20T06:37:56;-0.10;99.90
26503;DHT22;14177;51.520;6.764;2022-11-20T06:40:23;-0.10;99.90
26503;DHT22;14177;51.520;6.764;2022-11-20T06:42:50;0.00;99.90
26503;DHT22;14177;51.520;6.764;2022-11-20T06:45:17;0.00;99.90
26503;DHT22;14177;51.520;6.764;2022-11-20T06:47:44;0.00;99.90
26503;DHT22;14177;51.520;6.764;2022-11-20T06:50:10;-0.10;99.90
26503;DHT22;14177;51.520;6.764;2022-11-20T06:52:37;-0.10;99.90
26503;DHT22;14177;51.520;6.764;2022-11-20T06:55:09;-0.10;99.90
26503;DHT22;14177;51.520;6.764;2022-11-20T06:57:36;-0.10;99.90
26503;DHT22;14177;51.520;6.764;2022-11-20T07:00:03;0.00;99.90
26503;DHT22;14177;51.520;6.764;2022-11-20T07:02:30;0.00;99.90
26503;DHT22;14177;51.520;6.764;2022-11-20T07:04:57;-0.10;99.90
26503;DHT22;14177;51.520;6.764;2022-11-20T07:07:24;-0.10;99.90
26503;DHT22;14177;51.520;6.764;2022-11-20T07:09:50;-0.10;99.90
26503;DHT22;14177;51.520;6.764;2022-11-20T07:12:17;0.00;99.90
26503;DHT22;14177;51.520;6.764;2022-11-20T07:14:44;-0.10;99.90
26503;DHT22;14177;51.520;6.764;2022-11-20T07:17:11;-0.10;99.90
26503;DHT22;14177;51.520;6.764;2022-11-20T07:19:38;0.00;99.90
26503;DHT22;14177;51.520;6.764;2022-11-20T07:22:05;0.00;99.90
26503;DHT22;14177;51.520;6.764;2022-11-20T07:24:32;0.00;99.90
26503;DHT22;14177;51.520;6.764;2022-11-20T07:26:59;0.10;99.90
26503;DHT22;14177;51.520;6.764;2022-11-20T07:29:25;0.10;99.90
26503;DHT22;14177;51.520;6.764;2022-11-20T07:31:53;0.10;99.90
26503;DHT22;14177;51.520;6.764;2022-11-20T07:34:22;0.20;99.90
26503;DHT22;14177;51.520;6.764;2022-11-20T07:36:49;0.20;99.90
26503;DHT22;14177;51.520;6.764;2022-11-20T07:39:16;0.20;99.90
26503;DHT22;14177;51.520;6.764;2022-11-20T07:41:42;0.20;99.90
26503;DHT22;14177;51.520;6.764;2022-11-20T07:44:09;0.30;99.90
26503;DHT22;14177;51.520;6.764;2022-11-20T07:46:36;0.30;99.90
26503;DHT22;14177;51.520;6.764;2022-11-20T07:49:03;0.40;99.90
26503;DHT22;14177;51.520;6.764;2022-11-20T07:51:30;0.40;99.90
26503;DHT22;14177;51.520;6.764;2022-11-20T07:53:57;0.40;99.90
26503;DHT22;14177;51.520;6.764;2022-11-20T07:56:24;0.40;99.90
26503;DHT22;14177;51.520;6.764;2022-11-20T07:58:51;0.50;99.90
26503;DHT22;14177;51.520;6.764;2022-11-20T08:01:18;0.40;99.90
26503;DHT22;14177;51.520;6.764;2022-11-20T08:03:45;0.40;99.90
26503;DHT22;14177;51.520;6.764;2022-11-20T08:06:12;0.40;99.90
26503;DHT22;14177;51.520;6.764;2022-11-20T08:08:39;0.40;99.90
26503;DHT22;14177;51.520;6.764;2022-11-20T08:11:10;0.40;99.90
26503;DHT22;14177;51.520;6.764;2022-11-20T08:13:56;0.40;99.90
26503;DHT22;14177;51.520;6.764;2022-11-20T08:16:39;0.50;99.90
26503;DHT22;14177;51.520;6.764;2022-11-20T08:19:07;0.50;99.90
26503;DHT22;14177;51.520;6.764;2022-11-20T08:21:34;0.50;99.90
26503;DHT22;14177;51.520;6.764;2022-11-20T08:24:04;0.50;99.90
26503;DHT22;14177;51.520;6.764;2022-11-20T08:26:31;0.60;99.90
26503;DHT22;14177;51.520;6.764;2022-11-20T08:28:59;0.70;99.90
26503;DHT22;14177;51.520;6.764;2022-11-20T08:31:26;0.80;99.90
26503;DHT22;14177;51.520;6.764;2022-11-20T08:33:53;0.90;99.90
26503;DHT22;14177;51.520;6.764;2022-11-20T08:36:21;1.00;99.90
26503;DHT22;14177;51.520;6.764;2022-11-20T08:38:50;1.10;99.90
26503;DHT22;14177;51.520;6.764;2022-11-20T08:41:18;1.10;99.90
26503;DHT22;14177;51.520;6.764;2022-11-20T08:43:56;1.20;99.90
26503;DHT22;14177;51.520;6.764;2022-11-20T08:46:25;1.20;99.90
26503;DHT22;14177;51.520;6.764;2022-11-20T08:48:53;1.30;99.90
26503;DHT22;14177;51.520;6.764;2022-11-20T08:51:20;1.30;99.90
26503;DHT22;14177;51.520;6.764;2022-11-20T08:53:47;1.20;99.90
26503;DHT22;14177;51.520;6.764;2022-11-20T08:56:15;1.20;99.90
26503;DHT22;14177;51.520;6.764;2022-11-20T08:58:43;1.20;99.90
26503;DHT22;14177;51.520;6.764;2022-11-20T09:01:30;1.30;99.90
26503;DHT22;14177;51.520;6.764;2022-11-20T09:03:57;1.30;99.90
26503;DHT22;14177;51.520;6.764;2022-11-20T09:06:25;1.30;99.90
26503;DHT22;14177;51.520;6.764;2022-11-20T09:08:53;1.40;99.90
26503;DHT22;14177;51.520;6.764;2022-11-20T09:11:20;1.40;99.90
26503;DHT22;14177;51.520;6.764;2022-11-20T09:13:48;1.50;99.90
26503;DHT22;14177;51.520;6.764;2022-11-20T09:16:15;1.60;99.90
26503;DHT22;14177;51.520;6.764;2022-11-20T09:18:42;1.70;99.90
26503;DHT22;14177;51.520;6.764;2022-11-20T09:21:09;1.80;99.90
26503;DHT22;14177;51.520;6.764;2022-11-20T09:23:39;1.90;99.90
26503;DHT22;14177;51.520;6.764;2022-11-20T09:26:07;2.00;99.90
26503;DHT22;14177;51.520;6.764;2022-11-20T09:28:36;2.10;99.90
26503;DHT22;14177;51.520;6.764;2022-11-20T09:31:07;2.10;99.90
26503;DHT22;14177;51.520;6.764;2022-11-20T09:33:49;2.30;99.90
26503;DHT22;14177;51.520;6.764;2022-11-20T09:36:17;2.50;99.90
26503;DHT22;14177;51.520;6.764;2022-11-20T09:38:45;2.80;99.90
26503;DHT22;14177;51.520;6.764;2022-11-20T09:44:09;3.50;99.90
26503;DHT22;14177;51.520;6.764;2022-11-20T09:46:42;3.90;99.90
26503;DHT22;14177;51.520;6.764;2022-11-20T09:49:29;4.10;99.90
26503;DHT22;14177;51.520;6.764;2022-11-20T09:52:30;4.30;99.90
26503;DHT22;14177;51.520;6.764;2022-11-20T09:55:04;4.80;99.90
26503;DHT22;14177;51.520;6.764;2022-11-20T09:57:36;5.60;99.70
26503;DHT22;14177;51.520;6.764;2022-11-20T10:00:06;6.40;98.90
26503;DHT22;14177;51.520;6.764;2022-11-20T10:02:42;7.00;97.30
26503;DHT22;14177;51.520;6.764;2022-11-20T10:05:18;7.70;95.90
26503;DHT22;14177;51.520;6.764;2022-11-20T10:07:53;8.30;95.10
26503;DHT22;14177;51.520;6.764;2022-11-20T10:10:33;8.80;93.50
26503;DHT22;14177;51.520;6.764;2022-11-20T10:19:15;9.00;89.20
26503;DHT22;14177;51.520;6.764;2022-11-20T10:29:44;7.30;91.50
26503;DHT22;14177;51.520;6.764;2022-11-20T10:32:20;7.00;91.90
26503;DHT22;14177;51.520;6.764;2022-11-20T10:35:01;6.80;92.60
26503;DHT22;14177;51.520;6.764;2022-11-20T10:37:36;6.80;93.10
26503;DHT22;14177;51.520;6.764;2022-11-20T10:43:02;6.60;93.20
26503;DHT22;14177;51.520;6.764;2022-11-20T10:48:25;6.50;94.10
26503;DHT22;14177;51.520;6.764;2022-11-20T10:51:06;6.40;94.40
26503;DHT22;14177;51.520;6.764;2022-11-20T10:56:27;6.40;94.10
26503;DHT22;14177;51.520;6.764;2022-11-20T11:02:19;6.40;94.40
26503;DHT22;14177;51.520;6.764;2022-11-20T11:04:54;6.40;94.60
26503;DHT22;14177;51.520;6.764;2022-11-20T11:07:22;6.40;94.30
26503;DHT22;14177;51.520;6.764;2022-11-20T11:09:53;6.50;94.70
26503;DHT22;14177;51.520;6.764;2022-11-20T11:12:23;6.40;94.10
26503;DHT22;14177;51.520;6.764;2022-11-20T11:14:53;6.20;93.90
26503;DHT22;14177;51.520;6.764;2022-11-20T11:17:31;6.20;94.20
26503;DHT22;14177;51.520;6.764;2022-11-20T11:20:25;6.00;94.50
26503;DHT22;14177;51.520;6.764;2022-11-20T11:22:54;5.90;94.90
26503;DHT22;14177;51.520;6.764;2022-11-20T11:27:52;5.70;95.40
26503;DHT22;14177;51.520;6.764;2022-11-20T11:30:22;5.50;95.70
26503;DHT22;14177;51.520;6.764;2022-11-20T11:32:50;5.50;95.80
26503;DHT22;14177;51.520;6.764;2022-11-20T11:35:25;5.40;96.20
26503;DHT22;14177;51.520;6.764;2022-11-20T11:38:01;5.40;96.30
26503;DHT22;14177;51.520;6.764;2022-11-20T11:40:31;5.40;96.70
26503;DHT22;14177;51.520;6.764;2022-11-20T11:43:01;5.40;96.80
26503;DHT22;14177;51.520;6.764;2022-11-20T11:45:31;5.50;97.00
26503;DHT22;14177;51.520;6.764;2022-11-20T11:48:00;5.50;96.60
26503;DHT22;14177;51.520;6.764;2022-11-20T11:50:29;5.50;96.70
26503;DHT22;14177;51.520;6.764;2022-11-20T11:53:01;5.50;96.80
26503;DHT22;14177;51.520;6.764;2022-11-20T11:55:36;5.50;97.00
26503;DHT22;14177;51.520;6.764;2022-11-20T11:58:14;5.60;97.10
26503;DHT22;14177;51.520;6.764;2022-11-20T12:00:51;5.60;96.80
26503;DHT22;14177;51.520;6.764;2022-11-20T12:03:35;5.60;96.80
26503;DHT22;14177;51.520;6.764;2022-11-20T12:06:13;5.50;96.90
26503;DHT22;14177;51.520;6.764;2022-11-20T12:08:59;5.50;96.80
26503;DHT22;14177;51.520;6.764;2022-11-20T12:11:34;5.50;96.80
26503;DHT22;14177;51.520;6.764;2022-11-20T12:16:50;5.40;97.00
26503;DHT22;14177;51.520;6.764;2022-11-20T12:19:19;5.30;97.00
26503;DHT22;14177;51.520;6.764;2022-11-20T12:30:21;5.30;97.60
26503;DHT22;14177;51.520;6.764;2022-11-20T12:38:41;5.30;97.80
26503;DHT22;14177;51.520;6.764;2022-11-20T12:47:50;5.30;97.80
26503;DHT22;14177;51.520;6.764;2022-11-20T13:01:52;5.40;97.80
26503;DHT22;14177;51.520;6.764;2022-11-20T13:07:06;5.50;97.60
26503;DHT22;14177;51.520;6.764;2022-11-20T13:09:37;5.50;97.70
26503;DHT22;14177;51.520;6.764;2022-11-20T13:14:53;5.50;97.70
26503;DHT22;14177;51.520;6.764;2022-11-20T13:17:34;5.50;97.80
26503;DHT22;14177;51.520;6.764;2022-11-20T13:20:11;5.50;97.70
26503;DHT22;14177;51.520;6.764;2022-11-20T13:25:30;5.50;97.80
26503;DHT22;14177;51.520;6.764;2022-11-20T13:28:44;5.50;97.80
26503;DHT22;14177;51.520;6.764;2022-11-20T13:30:53;5.50;97.90
26503;DHT22;14177;51.520;6.764;2022-11-20T13:35:56;5.50;98.40
26503;DHT22;14177;51.520;6.764;2022-11-20T13:38:28;5.50;98.70
26503;DHT22;14177;51.520;6.764;2022-11-20T13:41:09;5.50;98.90
26503;DHT22;14177;51.520;6.764;2022-11-20T13:43:57;5.50;99.00
26503;DHT22;14177;51.520;6.764;2022-11-20T13:46:37;5.50;99.30
26503;DHT22;14177;51.520;6.764;2022-11-20T13:49:07;5.40;99.40
26503;DHT22;14177;51.520;6.764;2022-11-20T13:54:55;5.40;99.80
26503;DHT22;14177;51.520;6.764;2022-11-20T13:58:12;5.40;99.70
26503;DHT22;14177;51.520;6.764;2022-11-20T14:00:33;5.30;99.90
26503;DHT22;14177;51.520;6.764;2022-11-20T14:03:12;5.30;99.90
26503;DHT22;14177;51.520;6.764;2022-11-20T14:05:51;5.30;99.90
26503;DHT22;14177;51.520;6.764;2022-11-20T14:08:27;5.30;99.90
26503;DHT22;14177;51.520;6.764;2022-11-20T14:11:02;5.30;99.90
26503;DHT22;14177;51.520;6.764;2022-11-20T14:13:30;5.30;99.90
26503;DHT22;14177;51.520;6.764;2022-11-20T14:15:57;5.30;99.90
26503;DHT22;14177;51.520;6.764;2022-11-20T14:18:25;5.30;99.90
26503;DHT22;14177;51.520;6.764;2022-11-20T14:20:54;5.30;99.90
26503;DHT22;14177;51.520;6.764;2022-11-20T14:23:25;5.30;99.90
26503;DHT22;14177;51.520;6.764;2022-11-20T14:25:56;5.20;99.90
26503;DHT22;14177;51.520;6.764;2022-11-20T14:28:25;5.20;99.90
26503;DHT22;14177;51.520;6.764;2022-11-20T14:30:53;5.20;99.90
26503;DHT22;14177;51.520;6.764;2022-11-20T14:33:22;5.20;99.90
26503;DHT22;14177;51.520;6.764;2022-11-20T14:35:52;5.30;99.90
26503;DHT22;14177;51.520;6.764;2022-11-20T14:38:23;5.30;99.90
26503;DHT22;14177;51.520;6.764;2022-11-20T14:40:53;5.30;99.90
26503;DHT22;14177;51.520;6.764;2022-11-20T14:46:02;5.30;99.90
26503;DHT22;14177;51.520;6.764;2022-11-20T14:48:36;5.20;99.90
26503;DHT22;14177;51.520;6.764;2022-11-20T14:51:08;5.20;99.90
26503;DHT22;14177;51.520;6.764;2022-11-20T14:53:37;5.20;99.90
26503;DHT22;14177;51.520;6.764;2022-11-20T14:56:04;5.20;99.90
26503;DHT22;14177;51.520;6.764;2022-11-20T14:58:31;5.20;99.90
26503;DHT22;14177;51.520;6.764;2022-11-20T15:01:04;5.20;99.90
26503;DHT22;14177;51.520;6.764;2022-11-20T15:03:33;5.10;99.90
26503;DHT22;14177;51.520;6.764;2022-11-20T15:06:03;5.10;99.90
26503;DHT22;14177;51.520;6.764;2022-11-20T15:08:31;5.10;99.90
26503;DHT22;14177;51.520;6.764;2022-11-20T15:10:58;5.10;99.90
26503;DHT22;14177;51.520;6.764;2022-11-20T15:16:08;5.10;99.90
26503;DHT22;14177;51.520;6.764;2022-11-20T15:18:43;5.10;99.90
26503;DHT22;14177;51.520;6.764;2022-11-20T15:21:15;5.10;99.90
26503;DHT22;14177;51.520;6.764;2022-11-20T15:23:43;5.00;99.90
26503;DHT22;14177;51.520;6.764;2022-11-20T15:26:11;5.00;99.90
26503;DHT22;14177;51.520;6.764;2022-11-20T15:28:46;5.10;99.90
26503;DHT22;14177;51.520;6.764;2022-11-20T15:31:18;5.00;99.90
26503;DHT22;14177;51.520;6.764;2022-11-20T15:33:48;5.00;99.90
26503;DHT22;14177;51.520;6.764;2022-11-20T15:36:15;4.90;99.90
26503;DHT22;14177;51.520;6.764;2022-11-20T15:38:43;4.90;99.90
26503;DHT22;14177;51.520;6.764;2022-11-20T15:41:11;4.90;99.90
26503;DHT22;14177;51.520;6.764;2022-11-20T15:43:38;4.90;99.90
26503;DHT22;14177;51.520;6.764;2022-11-20T15:46:09;4.90;99.90
26503;DHT22;14177;51.520;6.764;2022-11-20T15:48:44;4.90;99.90
26503;DHT22;14177;51.520;6.764;2022-11-20T15:53:55;4.80;99.90
26503;DHT22;14177;51.520;6.764;2022-11-20T15:56:22;4.80;99.90
26503;DHT22;14177;51.520;6.764;2022-11-20T15:58:51;4.80;99.90
26503;DHT22;14177;51.520;6.764;2022-11-20T16:01:19;4.80;99.90
26503;DHT22;14177;51.520;6.764;2022-11-20T16:03:48;4.80;99.90
26503;DHT22;14177;51.520;6.764;2022-11-20T16:06:15;4.80;99.90
26503;DHT22;14177;51.520;6.764;2022-11-20T16:08:45;4.80;99.90
26503;DHT22;14177;51.520;6.764;2022-11-20T16:11:13;4.80;99.90
26503;DHT22;14177;51.520;6.764;2022-11-20T16:13:41;4.80;99.90
26503;DHT22;14177;51.520;6.764;2022-11-20T16:16:35;4.80;99.90
26503;DHT22;14177;51.520;6.764;2022-11-20T16:19:05;4.80;99.90
26503;DHT22;14177;51.520;6.764;2022-11-20T16:21:32;4.80;99.90
26503;DHT22;14177;51.520;6.764;2022-11-20T16:24:00;4.80;99.90
26503;DHT22;14177;51.520;6.764;2022-11-20T16:26:28;4.80;99.90
26503;DHT22;14177;51.520;6.764;2022-11-20T16:28:56;4.80;99.90
26503;DHT22;14177;51.520;6.764;2022-11-20T16:31:25;4.70;99.90
26503;DHT22;14177;51.520;6.764;2022-11-20T16:33:53;4.80;99.90
26503;DHT22;14177;51.520;6.764;2022-11-20T16:36:24;4.70;99.90
26503;DHT22;14177;51.520;6.764;2022-11-20T16:38:54;4.70;99.90
26503;DHT22;14177;51.520;6.764;2022-11-20T16:41:24;4.70;99.90
26503;DHT22;14177;51.520;6.764;2022-11-20T16:43:53;4.70;99.90
26503;DHT22;14177;51.520;6.764;2022-11-20T16:46:24;4.70;99.90
26503;DHT22;14177;51.520;6.764;2022-11-20T16:48:58;4.70;99.90
26503;DHT22;14177;51.520;6.764;2022-11-20T16:51:27;4.70;99.90
26503;DHT22;14177;51.520;6.764;2022-11-20T16:53:55;4.70;99.90
26503;DHT22;14177;51.520;6.764;2022-11-20T16:56:25;4.70;99.90
26503;DHT22;14177;51.520;6.764;2022-11-20T16:58:55;4.70;99.90
26503;DHT22;14177;51.520;6.764;2022-11-20T17:01:23;4.70;99.90
26503;DHT22;14177;51.520;6.764;2022-11-20T17:06:22;4.70;99.90
26503;DHT22;14177;51.520;6.764;2022-11-20T17:08:52;4.70;99.90
26503;DHT22;14177;51.520;6.764;2022-11-20T17:11:19;4.70;99.90
26503;DHT22;14177;51.520;6.764;2022-11-20T17:13:46;4.70;99.90
26503;DHT22;14177;51.520;6.764;2022-11-20T17:16:15;4.70;99.90
26503;DHT22;14177;51.520;6.764;2022-11-20T17:18:46;4.80;99.90
26503;DHT22;14177;51.520;6.764;2022-11-20T17:21:17;4.80;99.90
26503;DHT22;14177;51.520;6.764;2022-11-20T17:23:45;4.80;99.90
26503;DHT22;14177;51.520;6.764;2022-11-20T17:26:20;4.80;99.90
26503;DHT22;14177;51.520;6.764;2022-11-20T17:28:56;4.80;99.90
26503;DHT22;14177;51.520;6.764;2022-11-20T17:31:25;4.80;99.90
26503;DHT22;14177;51.520;6.764;2022-11-20T17:33:54;4.80;99.90
26503;DHT22;14177;51.520;6.764;2022-11-20T17:36:21;4.80;99.90